sensor_id;sensor_type;location;lat;lon;timestamp;temperature;humidity
18823;DHT22;9540;51.550;7.980;2023-04-03T00:02:10;-1.70;99.90
18823;DHT22;9540;51.550;7.980;2023-04-03T00:04:37;-1.70;99.90
18823;DHT22;9540;51.550;7.980;2023-04-03T00:07:04;-1.70;99.90
18823;DHT22;9540;51.550;7.980;2023-04-03T00:09:32;-1.70;99.90
18823;DHT22;9540;51.550;7.980;2023-04-03T00:11:59;-1.70;99.90
18823;DHT22;9540;51.550;7.980;2023-04-03T00:14:26;-1.70;99.90
18823;DHT22;9540;51.550;7.980;2023-04-03T00:16:54;-1.70;99.90
18823;DHT22;9540;51.550;7.980;2023-04-03T00:19:21;-1.70;99.90
18823;DHT22;9540;51.550;7.980;2023-04-03T00:21:48;-1.70;99.90
18823;DHT22;9540;51.550;7.980;2023-04-03T00:24:16;-1.70;99.90
18823;DHT22;9540;51.550;7.980;2023-04-03T00:26:44;-1.70;99.90
18823;DHT22;9540;51.550;7.980;2023-04-03T00:29:11;-1.70;99.90
18823;DHT22;9540;51.550;7.980;2023-04-03T00:31:39;-1.70;99.90
18823;DHT22;9540;51.550;7.980;2023-04-03T00:34:06;-1.80;99.90
18823;DHT22;9540;51.550;7.980;2023-04-03T00:36:34;-1.80;99.90
18823;DHT22;9540;51.550;7.980;2023-04-03T00:39:01;-1.90;99.90
18823;DHT22;9540;51.550;7.980;2023-04-03T00:41:28;-1.90;99.90
18823;DHT22;9540;51.550;7.980;2023-04-03T00:43:57;-1.90;99.90
18823;DHT22;9540;51.550;7.980;2023-04-03T00:46:24;-1.90;99.90
18823;DHT22;9540;51.550;7.980;2023-04-03T00:48:51;-1.90;99.90
18823;DHT22;9540;51.550;7.980;2023-04-03T00:51:20;-1.90;99.90
18823;DHT22;9540;51.550;7.980;2023-04-03T00:53:53;-1.90;99.90
18823;DHT22;9540;51.550;7.980;2023-04-03T00:56:23;-1.90;99.90
18823;DHT22;9540;51.550;7.980;2023-04-03T00:58:54;-1.90;99.90
18823;DHT22;9540;51.550;7.980;2023-04-03T01:01:27;-1.80;99.90
18823;DHT22;9540;51.550;7.980;2023-04-03T01:03:54;-1.80;99.90
18823;DHT22;9540;51.550;7.980;2023-04-03T01:06:26;-1.90;99.90
18823;DHT22;9540;51.550;7.980;2023-04-03T01:08:55;-1.90;99.90
18823;DHT22;9540;51.550;7.980;2023-04-03T01:11:22;-1.90;99.90
18823;DHT22;9540;51.550;7.980;2023-04-03T01:13:49;-1.90;99.90
18823;DHT22;9540;51.550;7.980;2023-04-03T01:16:16;-2.00;99.90
18823;DHT22;9540;51.550;7.980;2023-04-03T01:18:45;-2.00;99.90
18823;DHT22;9540;51.550;7.980;2023-04-03T01:21:43;-2.00;99.90
18823;DHT22;9540;51.550;7.980;2023-04-03T01:24:27;-2.10;99.90
18823;DHT22;9540;51.550;7.980;2023-04-03T01:26:57;-2.00;99.90
18823;DHT22;9540;51.550;7.980;2023-04-03T01:29:27;-2.10;99.90
18823;DHT22;9540;51.550;7.980;2023-04-03T01:31:57;-2.10;99.90
18823;DHT22;9540;51.550;7.980;2023-04-03T01:34:25;-2.10;99.90
18823;DHT22;9540;51.550;7.980;2023-04-03T01:36:53;-2.00;99.90
18823;DHT22;9540;51.550;7.980;2023-04-03T01:39:21;-2.00;99.90
18823;DHT22;9540;51.550;7.980;2023-04-03T01:41:49;-2.00;99.90
18823;DHT22;9540;51.550;7.980;2023-04-03T01:44:16;-2.00;99.90
18823;DHT22;9540;51.550;7.980;2023-04-03T01:46:43;-2.10;99.90
18823;DHT22;9540;51.550;7.980;2023-04-03T01:49:12;-2.10;99.90
18823;DHT22;9540;51.550;7.980;2023-04-03T01:51:39;-2.20;99.90
18823;DHT22;9540;51.550;7.980;2023-04-03T01:54:06;-2.20;99.90
18823;DHT22;9540;51.550;7.980;2023-04-03T01:56:33;-2.20;99.90
18823;DHT22;9540;51.550;7.980;2023-04-03T01:59:00;-2.20;99.90
18823;DHT22;9540;51.550;7.980;2023-04-03T02:01:27;-2.20;99.90
18823;DHT22;9540;51.550;7.980;2023-04-03T02:03:55;-2.20;99.90
18823;DHT22;9540;51.550;7.980;2023-04-03T02:06:23;-2.20;99.90
18823;DHT22;9540;51.550;7.980;2023-04-03T02:08:50;-2.20;99.90
18823;DHT22;9540;51.550;7.980;2023-04-03T02:11:18;-2.30;99.90
18823;DHT22;9540;51.550;7.980;2023-04-03T02:13:45;-2.30;99.90
18823;DHT22;9540;51.550;7.980;2023-04-03T02:16:12;-2.30;99.90
18823;DHT22;9540;51.550;7.980;2023-04-03T02:18:39;-2.30;99.90
18823;DHT22;9540;51.550;7.980;2023-04-03T02:21:07;-2.40;99.90
18823;DHT22;9540;51.550;7.980;2023-04-03T02:23:35;-2.40;99.90
18823;DHT22;9540;51.550;7.980;2023-04-03T02:26:08;-2.40;99.90
18823;DHT22;9540;51.550;7.980;2023-04-03T02:28:36;-2.40;99.90
18823;DHT22;9540;51.550;7.980;2023-04-03T02:31:04;-2.40;99.90
18823;DHT22;9540;51.550;7.980;2023-04-03T02:33:32;-2.40;99.90
18823;DHT22;9540;51.550;7.980;2023-04-03T02:35:59;-2.40;99.90
18823;DHT22;9540;51.550;7.980;2023-04-03T02:38:26;-2.40;99.90
18823;DHT22;9540;51.550;7.980;2023-04-03T02:41:00;-2.50;99.90
18823;DHT22;9540;51.550;7.980;2023-04-03T02:43:27;-2.50;99.90
18823;DHT22;9540;51.550;7.980;2023-04-03T02:45:54;-2.50;99.90
18823;DHT22;9540;51.550;7.980;2023-04-03T02:48:21;-2.50;99.90
18823;DHT22;9540;51.550;7.980;2023-04-03T02:50:48;-2.50;99.90
18823;DHT22;9540;51.550;7.980;2023-04-03T02:53:15;-2.50;99.90
18823;DHT22;9540;51.550;7.980;2023-04-03T02:55:43;-2.60;99.90
18823;DHT22;9540;51.550;7.980;2023-04-03T02:58:12;-2.60;99.90
18823;DHT22;9540;51.550;7.980;2023-04-03T03:00:39;-2.60;99.90
18823;DHT22;9540;51.550;7.980;2023-04-03T03:03:06;-2.60;99.90
18823;DHT22;9540;51.550;7.980;2023-04-03T03:05:33;-2.60;99.90
18823;DHT22;9540;51.550;7.980;2023-04-03T03:08:01;-2.60;99.90
18823;DHT22;9540;51.550;7.980;2023-04-03T03:10:28;-2.70;99.90
18823;DHT22;9540;51.550;7.980;2023-04-03T03:12:56;-2.70;99.90
18823;DHT22;9540;51.550;7.980;2023-04-03T03:15:24;-2.70;99.90
18823;DHT22;9540;51.550;7.980;2023-04-03T03:17:52;-2.60;99.90
18823;DHT22;9540;51.550;7.980;2023-04-03T03:20:19;-2.60;99.90
18823;DHT22;9540;51.550;7.980;2023-04-03T03:22:46;-2.60;99.90
18823;DHT22;9540;51.550;7.980;2023-04-03T03:25:14;-2.60;99.90
18823;DHT22;9540;51.550;7.980;2023-04-03T03:27:41;-2.70;99.90
18823;DHT22;9540;51.550;7.980;2023-04-03T03:30:08;-2.70;99.90
18823;DHT22;9540;51.550;7.980;2023-04-03T03:32:37;-2.70;99.90
18823;DHT22;9540;51.550;7.980;2023-04-03T03:35:05;-2.70;99.90
18823;DHT22;9540;51.550;7.980;2023-04-03T03:37:33;-2.70;99.90
18823;DHT22;9540;51.550;7.980;2023-04-03T03:40:00;-2.80;99.90
18823;DHT22;9540;51.550;7.980;2023-04-03T03:42:27;-2.80;99.90
18823;DHT22;9540;51.550;7.980;2023-04-03T03:44:54;-2.90;99.90
18823;DHT22;9540;51.550;7.980;2023-04-03T03:47:21;-3.00;99.90
18823;DHT22;9540;51.550;7.980;2023-04-03T03:49:50;-3.00;99.90
18823;DHT22;9540;51.550;7.980;2023-04-03T03:52:17;-3.00;99.90
18823;DHT22;9540;51.550;7.980;2023-04-03T03:54:44;-3.00;99.90
18823;DHT22;9540;51.550;7.980;2023-04-03T03:57:11;-3.10;99.90
18823;DHT22;9540;51.550;7.980;2023-04-03T03:59:38;-3.00;99.90
18823;DHT22;9540;51.550;7.980;2023-04-03T04:02:07;-3.00;99.90
18823;DHT22;9540;51.550;7.980;2023-04-03T04:04:34;-3.00;99.90
18823;DHT22;9540;51.550;7.980;2023-04-03T04:07:03;-3.00;99.90
18823;DHT22;9540;51.550;7.980;2023-04-03T04:09:30;-3.00;99.90
18823;DHT22;9540;51.550;7.980;2023-04-03T04:11:57;-3.10;99.90
18823;DHT22;9540;51.550;7.980;2023-04-03T04:14:24;-3.10;99.90
18823;DHT22;9540;51.550;7.980;2023-04-03T04:16:52;-3.10;99.90
18823;DHT22;9540;51.550;7.980;2023-04-03T04:19:19;-3.10;99.90
18823;DHT22;9540;51.550;7.980;2023-04-03T04:21:46;-3.20;99.90
18823;DHT22;9540;51.550;7.980;2023-04-03T04:24:14;-3.20;99.90
18823;DHT22;9540;51.550;7.980;2023-04-03T04:26:42;-3.20;99.90
18823;DHT22;9540;51.550;7.980;2023-04-03T04:29:09;-3.30;99.90
18823;DHT22;9540;51.550;7.980;2023-04-03T04:31:36;-3.30;99.90
18823;DHT22;9540;51.550;7.980;2023-04-03T04:34:03;-3.30;99.90
18823;DHT22;9540;51.550;7.980;2023-04-03T04:36:31;-3.30;99.90
18823;DHT22;9540;51.550;7.980;2023-04-03T04:38:58;-3.30;99.90
18823;DHT22;9540;51.550;7.980;2023-04-03T04:41:26;-3.30;99.90
18823;DHT22;9540;51.550;7.980;2023-04-03T04:43:53;-3.30;99.90
18823;DHT22;9540;51.550;7.980;2023-04-03T04:46:21;-3.30;99.90
18823;DHT22;9540;51.550;7.980;2023-04-03T04:48:48;-3.30;99.90
18823;DHT22;9540;51.550;7.980;2023-04-03T04:51:15;-3.40;99.90
18823;DHT22;9540;51.550;7.980;2023-04-03T04:53:42;-3.40;99.90
18823;DHT22;9540;51.550;7.980;2023-04-03T04:56:10;-3.40;99.90
18823;DHT22;9540;51.550;7.980;2023-04-03T04:58:39;-3.40;99.90
18823;DHT22;9540;51.550;7.980;2023-04-03T05:01:07;-3.30;99.90
18823;DHT22;9540;51.550;7.980;2023-04-03T05:03:35;-3.30;99.90
18823;DHT22;9540;51.550;7.980;2023-04-03T05:06:03;-3.30;99.90
18823;DHT22;9540;51.550;7.980;2023-04-03T05:08:30;-3.30;99.90
18823;DHT22;9540;51.550;7.980;2023-04-03T05:10:57;-3.20;99.90
18823;DHT22;9540;51.550;7.980;2023-04-03T05:13:25;-3.10;99.90
18823;DHT22;9540;51.550;7.980;2023-04-03T05:15:53;-3.00;99.90
18823;DHT22;9540;51.550;7.980;2023-04-03T05:18:20;-3.00;99.90
18823;DHT22;9540;51.550;7.980;2023-04-03T05:20:49;-2.90;99.90
18823;DHT22;9540;51.550;7.980;2023-04-03T05:23:16;-2.80;99.90
18823;DHT22;9540;51.550;7.980;2023-04-03T05:25:43;-2.40;99.90
18823;DHT22;9540;51.550;7.980;2023-04-03T05:28:11;-2.00;99.90
18823;DHT22;9540;51.550;7.980;2023-04-03T05:30:38;-1.40;99.90
18823;DHT22;9540;51.550;7.980;2023-04-03T05:33:06;-0.90;99.90
18823;DHT22;9540;51.550;7.980;2023-04-03T05:35:35;-0.70;99.90
18823;DHT22;9540;51.550;7.980;2023-04-03T05:38:04;-0.60;99.90
18823;DHT22;9540;51.550;7.980;2023-04-03T05:40:32;-0.20;99.90
18823;DHT22;9540;51.550;7.980;2023-04-03T05:42:59;0.20;99.90
18823;DHT22;9540;51.550;7.980;2023-04-03T05:45:26;0.40;99.90
18823;DHT22;9540;51.550;7.980;2023-04-03T05:47:53;0.50;99.90
18823;DHT22;9540;51.550;7.980;2023-04-03T05:50:21;0.60;99.90
18823;DHT22;9540;51.550;7.980;2023-04-03T05:52:50;0.80;99.90
18823;DHT22;9540;51.550;7.980;2023-04-03T05:55:18;0.80;99.90
18823;DHT22;9540;51.550;7.980;2023-04-03T05:57:45;0.60;99.90
18823;DHT22;9540;51.550;7.980;2023-04-03T06:00:14;0.60;99.90
18823;DHT22;9540;51.550;7.980;2023-04-03T06:02:42;0.60;99.90
18823;DHT22;9540;51.550;7.980;2023-04-03T06:05:09;0.40;99.90
18823;DHT22;9540;51.550;7.980;2023-04-03T06:07:38;0.30;99.90
18823;DHT22;9540;51.550;7.980;2023-04-03T06:10:07;0.20;99.90
18823;DHT22;9540;51.550;7.980;2023-04-03T06:12:34;0.20;99.90
18823;DHT22;9540;51.550;7.980;2023-04-03T06:15:01;0.20;99.90
18823;DHT22;9540;51.550;7.980;2023-04-03T06:17:29;0.20;99.90
18823;DHT22;9540;51.550;7.980;2023-04-03T06:19:56;0.20;99.90
18823;DHT22;9540;51.550;7.980;2023-04-03T06:22:24;0.30;99.90
18823;DHT22;9540;51.550;7.980;2023-04-03T06:24:56;0.30;99.90
18823;DHT22;9540;51.550;7.980;2023-04-03T06:27:24;0.40;99.90
18823;DHT22;9540;51.550;7.980;2023-04-03T06:29:51;0.60;99.90
18823;DHT22;9540;51.550;7.980;2023-04-03T06:32:18;0.70;99.90
18823;DHT22;9540;51.550;7.980;2023-04-03T06:34:45;0.80;99.90
18823;DHT22;9540;51.550;7.980;2023-04-03T06:37:15;1.00;99.90
18823;DHT22;9540;51.550;7.980;2023-04-03T06:39:42;1.10;99.90
18823;DHT22;9540;51.550;7.980;2023-04-03T06:42:12;1.30;99.90
18823;DHT22;9540;51.550;7.980;2023-04-03T06:44:39;1.50;99.90
18823;DHT22;9540;51.550;7.980;2023-04-03T06:47:06;1.50;99.90
18823;DHT22;9540;51.550;7.980;2023-04-03T06:49:34;1.60;99.90
18823;DHT22;9540;51.550;7.980;2023-04-03T06:52:03;1.90;99.90
18823;DHT22;9540;51.550;7.980;2023-04-03T06:54:30;2.30;99.90
18823;DHT22;9540;51.550;7.980;2023-04-03T06:56:57;2.70;99.90
18823;DHT22;9540;51.550;7.980;2023-04-03T06:59:26;2.80;99.90
18823;DHT22;9540;51.550;7.980;2023-04-03T07:01:53;2.80;99.90
18823;DHT22;9540;51.550;7.980;2023-04-03T07:04:20;3.00;99.90
18823;DHT22;9540;51.550;7.980;2023-04-03T07:06:48;3.50;99.90
18823;DHT22;9540;51.550;7.980;2023-04-03T07:09:15;3.90;99.90
18823;DHT22;9540;51.550;7.980;2023-04-03T07:11:42;4.00;99.90
18823;DHT22;9540;51.550;7.980;2023-04-03T07:14:09;4.20;99.90
18823;DHT22;9540;51.550;7.980;2023-04-03T07:16:38;4.40;99.90
18823;DHT22;9540;51.550;7.980;2023-04-03T07:19:05;4.60;99.90
18823;DHT22;9540;51.550;7.980;2023-04-03T07:21:34;4.20;99.90
18823;DHT22;9540;51.550;7.980;2023-04-03T07:24:01;3.90;99.90
18823;DHT22;9540;51.550;7.980;2023-04-03T07:26:28;3.80;99.90
18823;DHT22;9540;51.550;7.980;2023-04-03T07:28:56;3.70;99.90
18823;DHT22;9540;51.550;7.980;2023-04-03T07:31:23;3.60;99.90
18823;DHT22;9540;51.550;7.980;2023-04-03T07:33:52;3.70;99.90
18823;DHT22;9540;51.550;7.980;2023-04-03T07:36:22;3.90;99.90
18823;DHT22;9540;51.550;7.980;2023-04-03T07:38:49;4.10;99.90
18823;DHT22;9540;51.550;7.980;2023-04-03T07:41:18;4.10;99.90
18823;DHT22;9540;51.550;7.980;2023-04-03T07:43:48;4.10;99.90
18823;DHT22;9540;51.550;7.980;2023-04-03T07:46:16;4.30;99.90
18823;DHT22;9540;51.550;7.980;2023-04-03T07:48:44;4.30;99.90
18823;DHT22;9540;51.550;7.980;2023-04-03T07:51:13;4.70;99.90
18823;DHT22;9540;51.550;7.980;2023-04-03T07:53:40;4.50;99.90
18823;DHT22;9540;51.550;7.980;2023-04-03T07:56:07;4.10;99.90
18823;DHT22;9540;51.550;7.980;2023-04-03T07:58:35;3.80;99.90
18823;DHT22;9540;51.550;7.980;2023-04-03T08:01:03;3.70;99.90
18823;DHT22;9540;51.550;7.980;2023-04-03T08:03:30;3.70;99.90
18823;DHT22;9540;51.550;7.980;2023-04-03T08:06:01;3.70;99.90
18823;DHT22;9540;51.550;7.980;2023-04-03T08:08:30;3.80;99.90
18823;DHT22;9540;51.550;7.980;2023-04-03T08:10:59;3.90;99.90
18823;DHT22;9540;51.550;7.980;2023-04-03T08:13:29;4.00;99.90
18823;DHT22;9540;51.550;7.980;2023-04-03T08:15:56;4.10;99.90
18823;DHT22;9540;51.550;7.980;2023-04-03T08:18:25;4.40;99.90
18823;DHT22;9540;51.550;7.980;2023-04-03T08:20:52;4.90;99.90
18823;DHT22;9540;51.550;7.980;2023-04-03T08:23:19;5.50;99.90
18823;DHT22;9540;51.550;7.980;2023-04-03T08:25:48;6.00;99.90
18823;DHT22;9540;51.550;7.980;2023-04-03T08:28:15;6.20;99.90
18823;DHT22;9540;51.550;7.980;2023-04-03T08:30:42;5.90;99.90
18823;DHT22;9540;51.550;7.980;2023-04-03T08:33:10;5.50;99.90
18823;DHT22;9540;51.550;7.980;2023-04-03T08:35:41;5.50;99.90
18823;DHT22;9540;51.550;7.980;2023-04-03T08:38:08;6.00;99.90
18823;DHT22;9540;51.550;7.980;2023-04-03T08:40:36;6.80;99.90
18823;DHT22;9540;51.550;7.980;2023-04-03T08:43:16;7.60;99.90
18823;DHT22;9540;51.550;7.980;2023-04-03T08:45:51;8.20;99.90
18823;DHT22;9540;51.550;7.980;2023-04-03T08:48:20;8.90;99.90
18823;DHT22;9540;51.550;7.980;2023-04-03T08:50:51;9.40;99.90
18823;DHT22;9540;51.550;7.980;2023-04-03T08:53:23;9.60;99.90
18823;DHT22;9540;51.550;7.980;2023-04-03T08:55:53;9.30;99.90
18823;DHT22;9540;51.550;7.980;2023-04-03T08:58:25;9.30;99.90
18823;DHT22;9540;51.550;7.980;2023-04-03T09:00:57;9.80;99.90
18823;DHT22;9540;51.550;7.980;2023-04-03T09:03:28;11.20;93.80
18823;DHT22;9540;51.550;7.980;2023-04-03T09:05:59;11.60;88.00
18823;DHT22;9540;51.550;7.980;2023-04-03T09:08:28;11.60;86.40
18823;DHT22;9540;51.550;7.980;2023-04-03T09:11:06;11.90;80.00
18823;DHT22;9540;51.550;7.980;2023-04-03T09:13:43;11.70;79.10
18823;DHT22;9540;51.550;7.980;2023-04-03T09:16:20;11.70;78.40
18823;DHT22;9540;51.550;7.980;2023-04-03T09:18:52;11.80;79.70
18823;DHT22;9540;51.550;7.980;2023-04-03T09:21:25;11.70;80.10
18823;DHT22;9540;51.550;7.980;2023-04-03T09:23:59;12.30;80.00
18823;DHT22;9540;51.550;7.980;2023-04-03T09:26:30;12.70;79.20
18823;DHT22;9540;51.550;7.980;2023-04-03T09:29:02;13.30;73.20
18823;DHT22;9540;51.550;7.980;2023-04-03T09:31:37;13.70;70.50
18823;DHT22;9540;51.550;7.980;2023-04-03T09:34:09;13.30;71.60
18823;DHT22;9540;51.550;7.980;2023-04-03T09:36:41;13.00;69.40
18823;DHT22;9540;51.550;7.980;2023-04-03T09:39:12;12.40;70.60
18823;DHT22;9540;51.550;7.980;2023-04-03T09:41:40;12.20;70.10
18823;DHT22;9540;51.550;7.980;2023-04-03T09:44:21;12.40;72.80
18823;DHT22;9540;51.550;7.980;2023-04-03T09:46:49;12.40;70.90
18823;DHT22;9540;51.550;7.980;2023-04-03T09:49:17;12.40;71.80
18823;DHT22;9540;51.550;7.980;2023-04-03T09:51:45;12.80;68.00
18823;DHT22;9540;51.550;7.980;2023-04-03T09:54:33;12.40;71.10
18823;DHT22;9540;51.550;7.980;2023-04-03T09:57:06;12.00;70.80
18823;DHT22;9540;51.550;7.980;2023-04-03T09:59:35;11.70;72.90
18823;DHT22;9540;51.550;7.980;2023-04-03T10:02:28;12.30;67.80
18823;DHT22;9540;51.550;7.980;2023-04-03T10:04:57;12.80;65.30
18823;DHT22;9540;51.550;7.980;2023-04-03T10:07:31;13.40;63.40
18823;DHT22;9540;51.550;7.980;2023-04-03T10:09:59;13.50;65.40
18823;DHT22;9540;51.550;7.980;2023-04-03T10:12:27;13.70;63.40
18823;DHT22;9540;51.550;7.980;2023-04-03T10:14:57;13.60;62.10
18823;DHT22;9540;51.550;7.980;2023-04-03T10:17:33;13.70;62.10
18823;DHT22;9540;51.550;7.980;2023-04-03T10:20:09;13.80;60.00
18823;DHT22;9540;51.550;7.980;2023-04-03T10:22:48;13.60;59.60
18823;DHT22;9540;51.550;7.980;2023-04-03T10:25:21;13.70;59.20
18823;DHT22;9540;51.550;7.980;2023-04-03T10:27:55;13.30;59.50
18823;DHT22;9540;51.550;7.980;2023-04-03T10:30:36;12.70;60.10
18823;DHT22;9540;51.550;7.980;2023-04-03T10:33:24;12.30;62.20
18823;DHT22;9540;51.550;7.980;2023-04-03T10:36:07;11.70;60.20
18823;DHT22;9540;51.550;7.980;2023-04-03T10:38:46;11.50;65.10
18823;DHT22;9540;51.550;7.980;2023-04-03T10:41:20;11.80;63.30
18823;DHT22;9540;51.550;7.980;2023-04-03T10:43:59;11.90;62.40
18823;DHT22;9540;51.550;7.980;2023-04-03T10:46:36;11.70;68.30
18823;DHT22;9540;51.550;7.980;2023-04-03T10:49:19;11.30;63.90
18823;DHT22;9540;51.550;7.980;2023-04-03T10:51:56;10.80;66.50
18823;DHT22;9540;51.550;7.980;2023-04-03T10:54:30;10.90;68.60
18823;DHT22;9540;51.550;7.980;2023-04-03T10:57:01;11.20;70.10
18823;DHT22;9540;51.550;7.980;2023-04-03T10:59:32;11.70;66.30
18823;DHT22;9540;51.550;7.980;2023-04-03T11:02:06;11.70;64.50
18823;DHT22;9540;51.550;7.980;2023-04-03T11:04:36;11.70;63.60
18823;DHT22;9540;51.550;7.980;2023-04-03T11:07:10;11.70;66.60
18823;DHT22;9540;51.550;7.980;2023-04-03T11:09:42;11.40;65.20
18823;DHT22;9540;51.550;7.980;2023-04-03T11:12:14;11.10;66.00
18823;DHT22;9540;51.550;7.980;2023-04-03T11:14:43;11.10;63.70
18823;DHT22;9540;51.550;7.980;2023-04-03T11:17:25;11.00;64.20
18823;DHT22;9540;51.550;7.980;2023-04-03T11:20:00;11.20;66.40
18823;DHT22;9540;51.550;7.980;2023-04-03T11:22:32;11.30;64.40
18823;DHT22;9540;51.550;7.980;2023-04-03T11:25:06;11.10;62.80
18823;DHT22;9540;51.550;7.980;2023-04-03T11:27:41;10.90;64.00
18823;DHT22;9540;51.550;7.980;2023-04-03T11:30:15;11.10;64.90
18823;DHT22;9540;51.550;7.980;2023-04-03T11:33:10;11.30;66.00
18823;DHT22;9540;51.550;7.980;2023-04-03T11:35:44;11.50;65.60
18823;DHT22;9540;51.550;7.980;2023-04-03T11:38:19;11.80;65.40
18823;DHT22;9540;51.550;7.980;2023-04-03T11:40:49;12.10;63.70
18823;DHT22;9540;51.550;7.980;2023-04-03T11:43:24;12.20;63.00
18823;DHT22;9540;51.550;7.980;2023-04-03T11:45:57;12.00;65.00
18823;DHT22;9540;51.550;7.980;2023-04-03T11:48:48;11.90;63.20
18823;DHT22;9540;51.550;7.980;2023-04-03T11:51:38;12.10;65.80
18823;DHT22;9540;51.550;7.980;2023-04-03T11:57:44;12.40;67.00
18823;DHT22;9540;51.550;7.980;2023-04-03T12:04:02;12.10;63.70
18823;DHT22;9540;51.550;7.980;2023-04-03T12:10:02;10.00;67.10
18823;DHT22;9540;51.550;7.980;2023-04-03T12:12:41;10.70;69.40
18823;DHT22;9540;51.550;7.980;2023-04-03T12:21:12;11.10;66.00
18823;DHT22;9540;51.550;7.980;2023-04-03T12:23:56;10.90;69.10
18823;DHT22;9540;51.550;7.980;2023-04-03T12:26:25;11.00;69.50
18823;DHT22;9540;51.550;7.980;2023-04-03T12:28:55;11.10;69.00
18823;DHT22;9540;51.550;7.980;2023-04-03T12:31:25;11.00;68.60
18823;DHT22;9540;51.550;7.980;2023-04-03T12:34:09;10.60;71.50
18823;DHT22;9540;51.550;7.980;2023-04-03T12:36:50;10.30;69.20
18823;DHT22;9540;51.550;7.980;2023-04-03T12:39:33;10.10;71.40
18823;DHT22;9540;51.550;7.980;2023-04-03T12:42:18;9.80;72.50
18823;DHT22;9540;51.550;7.980;2023-04-03T12:44:56;9.60;77.80
18823;DHT22;9540;51.550;7.980;2023-04-03T12:47:29;9.50;72.50
18823;DHT22;9540;51.550;7.980;2023-04-03T12:49:59;9.30;72.70
18823;DHT22;9540;51.550;7.980;2023-04-03T12:52:41;8.90;73.90
18823;DHT22;9540;51.550;7.980;2023-04-03T12:55:18;8.90;82.00
18823;DHT22;9540;51.550;7.980;2023-04-03T12:57:46;9.00;73.90
18823;DHT22;9540;51.550;7.980;2023-04-03T13:00:32;9.00;83.20
18823;DHT22;9540;51.550;7.980;2023-04-03T13:03:01;8.90;77.90
18823;DHT22;9540;51.550;7.980;2023-04-03T13:05:30;8.90;83.80
18823;DHT22;9540;51.550;7.980;2023-04-03T13:08:01;8.90;86.50
18823;DHT22;9540;51.550;7.980;2023-04-03T13:10:29;8.90;85.00
18823;DHT22;9540;51.550;7.980;2023-04-03T13:12:58;8.90;81.90
18823;DHT22;9540;51.550;7.980;2023-04-03T13:15:27;9.00;84.80
18823;DHT22;9540;51.550;7.980;2023-04-03T13:17:56;9.00;88.20
18823;DHT22;9540;51.550;7.980;2023-04-03T13:20:26;9.10;78.20
18823;DHT22;9540;51.550;7.980;2023-04-03T13:22:58;9.00;79.80
18823;DHT22;9540;51.550;7.980;2023-04-03T13:25:29;8.70;80.20
18823;DHT22;9540;51.550;7.980;2023-04-03T13:27:59;8.50;88.30
18823;DHT22;9540;51.550;7.980;2023-04-03T13:30:29;8.30;83.80
18823;DHT22;9540;51.550;7.980;2023-04-03T13:33:01;8.20;85.60
18823;DHT22;9540;51.550;7.980;2023-04-03T13:35:35;8.40;89.70
18823;DHT22;9540;51.550;7.980;2023-04-03T13:38:19;8.70;85.70
18823;DHT22;9540;51.550;7.980;2023-04-03T13:40:49;9.20;85.90
18823;DHT22;9540;51.550;7.980;2023-04-03T13:43:19;9.50;84.10
18823;DHT22;9540;51.550;7.980;2023-04-03T13:45:59;9.60;82.80
18823;DHT22;9540;51.550;7.980;2023-04-03T13:48:27;9.50;88.00
18823;DHT22;9540;51.550;7.980;2023-04-03T13:51:04;9.80;83.30
18823;DHT22;9540;51.550;7.980;2023-04-03T13:53:40;10.00;85.40
18823;DHT22;9540;51.550;7.980;2023-04-03T13:56:09;9.70;80.90
18823;DHT22;9540;51.550;7.980;2023-04-03T13:58:53;8.90;77.50
18823;DHT22;9540;51.550;7.980;2023-04-03T14:01:22;8.30;99.70
18823;DHT22;9540;51.550;7.980;2023-04-03T14:03:54;8.00;95.10
18823;DHT22;9540;51.550;7.980;2023-04-03T14:06:23;8.00;91.40
18823;DHT22;9540;51.550;7.980;2023-04-03T14:08:52;8.10;95.50
18823;DHT22;9540;51.550;7.980;2023-04-03T14:11:22;8.20;99.50
18823;DHT22;9540;51.550;7.980;2023-04-03T14:13:51;8.50;99.90
18823;DHT22;9540;51.550;7.980;2023-04-03T14:16:20;8.80;99.30
18823;DHT22;9540;51.550;7.980;2023-04-03T14:18:48;8.90;92.20
18823;DHT22;9540;51.550;7.980;2023-04-03T14:21:18;8.80;98.60
18823;DHT22;9540;51.550;7.980;2023-04-03T14:23:46;8.80;93.80
18823;DHT22;9540;51.550;7.980;2023-04-03T14:26:17;8.60;99.00
18823;DHT22;9540;51.550;7.980;2023-04-03T14:28:45;8.60;93.30
18823;DHT22;9540;51.550;7.980;2023-04-03T14:31:13;8.60;93.60
18823;DHT22;9540;51.550;7.980;2023-04-03T14:33:42;8.50;95.00
18823;DHT22;9540;51.550;7.980;2023-04-03T14:36:13;8.10;97.60
18823;DHT22;9540;51.550;7.980;2023-04-03T14:38:42;8.20;99.90
18823;DHT22;9540;51.550;7.980;2023-04-03T14:41:11;8.50;89.50
18823;DHT22;9540;51.550;7.980;2023-04-03T14:43:40;8.60;99.90
18823;DHT22;9540;51.550;7.980;2023-04-03T14:46:12;8.60;99.90
18823;DHT22;9540;51.550;7.980;2023-04-03T14:48:40;8.60;85.80
18823;DHT22;9540;51.550;7.980;2023-04-03T14:51:08;8.60;87.90
18823;DHT22;9540;51.550;7.980;2023-04-03T14:53:36;8.60;91.00
18823;DHT22;9540;51.550;7.980;2023-04-03T14:56:09;8.40;88.50
18823;DHT22;9540;51.550;7.980;2023-04-03T14:58:37;8.10;90.70
18823;DHT22;9540;51.550;7.980;2023-04-03T15:01:05;8.10;90.90
18823;DHT22;9540;51.550;7.980;2023-04-03T15:03:32;8.20;92.30
18823;DHT22;9540;51.550;7.980;2023-04-03T15:05:59;8.40;92.60
18823;DHT22;9540;51.550;7.980;2023-04-03T15:08:27;8.30;92.60
18823;DHT22;9540;51.550;7.980;2023-04-03T15:10:56;8.10;90.00
18823;DHT22;9540;51.550;7.980;2023-04-03T15:13:24;8.10;91.90
18823;DHT22;9540;51.550;7.980;2023-04-03T15:15:52;8.30;97.80
18823;DHT22;9540;51.550;7.980;2023-04-03T15:18:22;8.50;92.90
18823;DHT22;9540;51.550;7.980;2023-04-03T15:20:52;8.30;97.70
18823;DHT22;9540;51.550;7.980;2023-04-03T15:23:19;8.00;99.40
18823;DHT22;9540;51.550;7.980;2023-04-03T15:25:47;7.70;92.40
18823;DHT22;9540;51.550;7.980;2023-04-03T15:28:21;7.50;99.70
18823;DHT22;9540;51.550;7.980;2023-04-03T15:30:50;7.50;99.90
18823;DHT22;9540;51.550;7.980;2023-04-03T15:33:17;7.70;98.80
18823;DHT22;9540;51.550;7.980;2023-04-03T15:35:45;7.80;99.70
18823;DHT22;9540;51.550;7.980;2023-04-03T15:38:12;7.90;92.10
18823;DHT22;9540;51.550;7.980;2023-04-03T15:40:40;7.90;95.00
18823;DHT22;9540;51.550;7.980;2023-04-03T15:43:08;7.90;92.20
18823;DHT22;9540;51.550;7.980;2023-04-03T15:45:36;7.80;99.90
18823;DHT22;9540;51.550;7.980;2023-04-03T15:48:04;7.70;92.00
18823;DHT22;9540;51.550;7.980;2023-04-03T15:50:33;7.60;98.30
18823;DHT22;9540;51.550;7.980;2023-04-03T15:53:02;7.50;95.60
18823;DHT22;9540;51.550;7.980;2023-04-03T15:55:32;7.50;93.10
18823;DHT22;9540;51.550;7.980;2023-04-03T15:58:00;7.60;92.90
18823;DHT22;9540;51.550;7.980;2023-04-03T16:00:28;7.70;98.20
18823;DHT22;9540;51.550;7.980;2023-04-03T16:02:58;7.80;99.90
18823;DHT22;9540;51.550;7.980;2023-04-03T16:05:27;8.00;99.90
18823;DHT22;9540;51.550;7.980;2023-04-03T16:07:54;8.10;99.90
18823;DHT22;9540;51.550;7.980;2023-04-03T16:10:23;8.30;91.90
18823;DHT22;9540;51.550;7.980;2023-04-03T16:12:50;8.40;95.50
18823;DHT22;9540;51.550;7.980;2023-04-03T16:15:18;8.20;90.50
18823;DHT22;9540;51.550;7.980;2023-04-03T16:17:45;7.90;99.90
18823;DHT22;9540;51.550;7.980;2023-04-03T16:20:14;7.80;99.90
18823;DHT22;9540;51.550;7.980;2023-04-03T16:22:42;7.70;99.90
18823;DHT22;9540;51.550;7.980;2023-04-03T16:25:10;7.80;98.90
18823;DHT22;9540;51.550;7.980;2023-04-03T16:27:40;7.80;99.90